Terminal Aerodrome Forecast
Issued by NWS Jackson, MS

Home | Current Version | Previous Version | Text Only | Print | Product List | Glossary On
Versions: 1 2 3 4 5 6 7 8 9 10 11 12
497
FTUS44 KJAN 240520
TAFGWO
TAF
KGWO 240520Z 2406/2506 16011KT P6SM FEW250
     FM240900 16012KT P6SM BKN015 BKN250
     FM241100 16013G20KT P6SM BKN025 BKN250
     FM241900 17016G25KT P6SM BKN050
     FM242300 16016G25KT P6SM BKN025
     FM250300 16016G26KT P6SM VCTS BKN025CB BKN050=

USA.gov is the U.S. government's official web portal to all federal, state and local government web resources and services.